Time;durP1;ratioP1;P1;durP2;ratioP2;P2;SDS_P1;SDS_P2;PMS_P1;PMS_P2;Temp;Humidity;BMP_temperature;BMP_pressure;BME280_temperature;BME280_humidity;BME280_pressure;Samples;Min_cycle;Max_cycle;Signal;HPM_P1;HPM_P2
2021/03/13 00:01:07;;;;;;;89.37;34.50;;;;;;;-0.40;67.12;96597.22;1809478;77;25806;-87
2021/03/13 00:03:35;;;;;;;90.70;35.13;;;;;;;-0.41;67.08;96590.25;1832797;77;25806;-86
2021/03/13 00:06:02;;;;;;;90.72;33.38;;;;;;;-0.51;67.00;96593.55;1809405;77;25912;-86
2021/03/13 00:08:30;;;;;;;83.85;35.92;;;;;;;-0.54;67.24;96587.23;1832733;77;27491;-86
2021/03/13 00:10:58;;;;;;;69.32;30.50;;;;;;;-0.57;67.28;96591.53;1799910;77;25318;-84
2021/03/13 00:13:25;;;;;;;56.90;22.67;;;;;;;-0.49;67.50;96590.24;1788826;77;26391;-84
2021/03/13 00:15:52;;;;;;;52.90;21.52;;;;;;;-0.43;67.66;96590.90;1842603;77;25807;-84
2021/03/13 00:18:20;;;;;;;50.40;22.05;;;;;;;-0.39;67.69;96584.30;1811436;77;25693;-84
2021/03/13 00:20:48;;;;;;;54.03;22.40;;;;;;;-0.35;67.75;96590.08;1809395;77;27468;-83
2021/03/13 00:23:15;;;;;;;49.58;21.82;;;;;;;-0.33;67.68;96587.27;1833086;77;25861;-85
2021/03/13 00:25:43;;;;;;;55.35;24.85;;;;;;;-0.38;67.73;96588.60;1809552;77;26400;-83
2021/03/13 00:28:10;;;;;;;56.73;24.92;;;;;;;-0.41;67.78;96586.77;1809349;77;26377;-84
2021/03/13 00:30:42;;;;;;;56.70;23.87;;;;;;;-0.37;67.82;96580.98;1806725;77;25736;-84
2021/03/13 00:33:17;;;;;;;57.17;24.45;;;;;;;-0.39;67.83;96573.69;1841503;77;27481;-84
2021/03/13 00:35:48;;;;;;;64.37;26.20;;;;;;;-0.36;67.82;96576.48;1809437;77;25770;-84
2021/03/13 00:38:21;;;;;;;74.58;28.25;;;;;;;-0.34;67.67;96569.69;1809469;77;25779;-84
2021/03/13 00:40:49;;;;;;;74.87;27.25;;;;;;;-0.30;67.53;96569.21;1813035;77;25691;-85
2021/03/13 00:43:17;;;;;;;72.20;30.80;;;;;;;-0.37;67.39;96560.27;1812174;77;25739;-84
2021/03/13 00:45:46;;;;;;;75.50;31.15;;;;;;;-0.42;67.35;96561.23;1811072;77;27497;-83
2021/03/13 00:48:13;;;;;;;54.90;21.73;;;;;;;-0.50;67.35;96557.27;1794203;77;25678;-85
2021/03/13 00:50:44;;;;;;;62.53;24.47;;;;;;;-0.57;67.42;96553.09;1809456;77;25786;-84
2021/03/13 00:53:12;;;;;;;59.50;25.12;;;;;;;-0.56;67.64;96556.08;1810050;77;26582;-84
2021/03/13 00:55:40;;;;;;;62.00;25.17;;;;;;;-0.53;67.69;96550.45;1826725;77;25875;-86
2021/03/13 00:58:07;;;;;;;56.23;24.40;;;;;;;-0.53;67.55;96550.45;1842617;77;28456;-84
2021/03/13 01:00:35;;;;;;;65.22;26.30;;;;;;;-0.52;67.57;96555.27;1830192;77;26471;-85
2021/03/13 01:03:04;;;;;;;45.03;18.75;;;;;;;-0.56;67.53;96549.45;1830835;77;25797;-84
2021/03/13 01:05:32;;;;;;;52.17;18.85;;;;;;;-0.56;67.53;96553.42;1842456;77;25786;-84
2021/03/13 01:08:00;;;;;;;51.08;18.60;;;;;;;-0.54;67.70;96550.62;1784326;79;25838;-83
2021/03/13 01:10:37;;;;;;;45.03;19.60;;;;;;;-0.57;67.60;96546.96;1809400;77;28354;-84
2021/03/13 01:13:06;;;;;;;43.05;17.23;;;;;;;-0.60;67.66;96549.44;1829529;77;25658;-84
2021/03/13 01:15:33;;;;;;;44.27;18.57;;;;;;;-0.59;67.68;96553.75;1835133;77;25671;-84
2021/03/13 01:18:02;;;;;;;50.15;20.70;;;;;;;-0.60;67.63;96550.76;1806700;77;26456;-87
2021/03/13 01:20:29;;;;;;;52.65;21.48;;;;;;;-0.60;67.61;96552.08;1809046;77;25878;-84
2021/03/13 01:22:57;;;;;;;58.58;23.57;;;;;;;-0.59;67.62;96544.47;1830683;77;27542;-84
2021/03/13 01:25:24;;;;;;;58.02;22.70;;;;;;;-0.66;67.59;96546.13;1842605;77;25788;-83
2021/03/13 01:27:51;;;;;;;60.03;20.70;;;;;;;-0.72;67.64;96550.73;1818864;77;25826;-86
2021/03/13 01:30:22;;;;;;;44.18;18.30;;;;;;;-0.77;67.68;96545.11;1809493;77;25757;-84
2021/03/13 01:32:52;;;;;;;37.58;15.78;;;;;;;-0.80;67.75;96537.47;1831495;77;25711;-84
2021/03/13 01:35:21;;;;;;;39.70;14.20;;;;;;;-0.81;67.77;96531.84;1822828;77;27557;-84
2021/03/13 01:37:49;;;;;;;35.40;15.23;;;;;;;-0.86;67.89;96535.48;1823963;77;26150;-85
2021/03/13 01:40:17;;;;;;;32.13;14.68;;;;;;;-0.85;68.06;96529.20;1826031;77;25825;-83
2021/03/13 01:42:47;;;;;;;32.48;14.05;;;;;;;-0.80;68.19;96526.88;1797468;77;25778;-83
2021/03/13 01:45:17;;;;;;;45.95;16.23;;;;;;;-0.78;68.25;96520.92;1826401;77;25658;-84
2021/03/13 01:47:46;;;;;;;31.93;14.18;;;;;;;-0.77;68.28;96526.56;1824507;77;27588;-84
2021/03/13 01:50:15;;;;;;;37.53;14.98;;;;;;;-0.80;68.36;96522.90;1817815;78;25841;-87
2021/03/13 01:52:42;;;;;;;33.85;15.70;;;;;;;-0.81;68.38;96521.23;1823551;78;25710;-86
2021/03/13 01:55:13;;;;;;;34.58;14.83;;;;;;;-0.77;68.44;96521.26;1823507;78;25866;-89
2021/03/13 01:57:41;;;;;;;30.72;12.58;;;;;;;-0.73;68.37;96515.98;1812083;77;26777;-85
2021/03/13 02:00:16;;;;;;;29.65;12.00;;;;;;;-0.67;68.30;96511.33;1821830;78;27523;-85
2021/03/13 02:02:44;;;;;;;26.93;12.70;;;;;;;-0.63;68.22;96513.17;1821522;78;26117;-84
2021/03/13 02:05:25;;;;;;;26.80;11.68;;;;;;;-0.72;68.15;96518.93;1817126;78;25692;-83
2021/03/13 02:07:58;;;;;;;28.10;12.65;;;;;;;-0.77;68.26;96518.61;1823578;78;26346;-87
2021/03/13 02:11:05;;;;;;;36.63;15.18;;;;;;;-0.82;68.32;96516.92;1822648;77;25766;-88
2021/03/13 02:14:12;;;;;;;34.73;16.52;;;;;;;-0.74;68.41;96512.99;1822500;78;27593;-84
2021/03/13 02:16:45;;;;;;;31.42;14.68;;;;;;;-0.70;68.42;96513.47;1816980;78;25930;-85
2021/03/13 02:19:33;;;;;;;34.50;16.40;;;;;;;-0.66;68.45;96507.70;1823362;78;25565;-85
2021/03/13 02:22:04;;;;;;;38.33;17.23;;;;;;;-0.65;68.33;96505.38;1823512;78;25819;-87
2021/03/13 02:24:52;;;;;;;29.37;12.05;;;;;;;-0.67;68.23;96517.96;1823850;77;25659;-85
2021/03/13 02:27:22;;;;;;;35.68;16.15;;;;;;;-0.76;68.20;96512.32;1822586;78;28471;-84
2021/03/13 02:30:00;;;;;;;39.63;15.60;;;;;;;-0.79;68.24;96515.28;1823564;78;26412;-85
2021/03/13 02:33:02;;;;;;;36.58;15.08;;;;;;;-0.78;68.19;96510.33;1823618;77;25842;-85
2021/03/13 02:35:42;;;;;;;25.45;10.15;;;;;;;-0.75;68.26;96515.30;1817603;78;25867;-85
2021/03/13 02:38:18;;;;;;;25.55;9.58;;;;;;;-0.74;68.24;96505.05;1815082;78;25752;-87
2021/03/13 02:40:48;;;;;;;29.00;11.20;;;;;;;-0.68;68.35;96507.52;1821192;78;27480;-87
2021/03/13 02:43:19;;;;;;;29.87;11.43;;;;;;;-0.69;68.19;96510.66;1823438;78;25742;-88
2021/03/13 02:45:52;;;;;;;23.03;9.63;;;;;;;-0.78;68.11;96512.48;1791860;78;25751;-85
2021/03/13 02:48:21;;;;;;;19.95;9.55;;;;;;;-0.88;68.18;96506.99;1825062;77;25884;-84
2021/03/13 02:50:50;;;;;;;22.20;9.48;;;;;;;-0.88;68.36;96508.32;1813356;77;25796;-85
2021/03/13 02:53:20;;;;;;;44.98;14.65;;;;;;;-0.83;68.47;96509.47;1815606;77;27563;-85
2021/03/13 02:55:50;;;;;;;107.45;35.55;;;;;;;-0.86;68.49;96510.31;1832906;77;26114;-87
2021/03/13 02:58:20;;;;;;;116.25;39.38;;;;;;;-0.93;68.35;96503.98;1822175;77;25756;-86
2021/03/13 03:00:47;;;;;;;93.95;35.20;;;;;;;-0.93;68.48;96500.02;1790977;77;25887;-84
2021/03/13 03:03:17;;;;;;;90.50;29.77;;;;;;;-0.87;68.56;96496.73;1802329;77;25764;-84
2021/03/13 03:05:46;;;;;;;66.80;23.85;;;;;;;-0.89;68.41;96496.89;1814757;77;27481;-85
2021/03/13 03:08:14;;;;;;;45.30;16.10;;;;;;;-0.90;68.46;96497.88;1816370;77;25747;-85
2021/03/13 03:10:44;;;;;;;43.68;15.93;;;;;;;-1.00;68.44;96492.39;1842548;77;25784;-84
2021/03/13 03:13:12;;;;;;;49.15;17.82;;;;;;;-0.96;68.63;96490.56;1842597;77;25904;-85
2021/03/13 03:15:40;;;;;;;47.98;17.12;;;;;;;-0.92;68.58;96496.38;1839449;77;25849;-86
2021/03/13 03:18:16;;;;;;;27.58;11.18;;;;;;;-0.89;68.50;96490.77;1818165;77;28544;-88
2021/03/13 03:20:47;;;;;;;30.08;13.60;;;;;;;-0.89;68.56;96493.41;1832762;77;25836;-85
2021/03/13 03:23:15;;;;;;;24.15;11.05;;;;;;;-0.80;68.67;96489.78;1809500;77;25669;-85
2021/03/13 03:25:42;;;;;;;26.30;10.53;;;;;;;-0.77;68.66;96486.81;1793693;77;26809;-85
2021/03/13 03:28:13;;;;;;;22.90;9.78;;;;;;;-0.71;68.67;96483.48;1809452;77;25692;-85
2021/03/13 03:30:39;;;;;;;21.15;9.00;;;;;;;-0.83;68.56;96484.80;1838087;77;27621;-85
2021/03/13 03:33:06;;;;;;;20.30;8.35;;;;;;;-0.83;68.63;96484.30;1826774;77;26187;-85
2021/03/13 03:35:34;;;;;;;25.12;10.75;;;;;;;-0.83;68.65;96482.14;1832789;77;25777;-85
2021/03/13 03:38:02;;;;;;;23.57;10.53;;;;;;;-0.89;68.55;96482.32;1822585;77;26805;-85
2021/03/13 03:40:33;;;;;;;30.80;10.93;;;;;;;-0.91;68.51;96480.82;1842122;77;25678;-85
2021/03/13 03:43:15;;;;;;;24.60;10.85;;;;;;;-0.97;68.62;96479.66;1809431;77;27500;-85
2021/03/13 03:45:46;;;;;;;30.55;9.58;;;;;;;-0.97;68.67;96473.53;1811203;77;25655;-85
2021/03/13 03:48:16;;;;;;;29.98;11.68;;;;;;;-0.98;68.83;96474.53;1842554;77;25367;-86
2021/03/13 03:50:45;;;;;;;27.85;10.23;;;;;;;-1.00;68.79;96486.61;1824183;77;26685;-86
2021/03/13 03:53:22;;;;;;;36.15;13.45;;;;;;;-1.00;68.82;96481.80;1838295;77;25804;-85
2021/03/13 03:55:52;;;;;;;29.52;11.68;;;;;;;-1.02;68.84;96479.80;1808060;77;27500;-85
2021/03/13 03:58:26;;;;;;;28.90;10.35;;;;;;;-1.06;68.79;96476.64;1824346;77;25818;-85
2021/03/13 04:00:56;;;;;;;47.15;16.67;;;;;;;-1.09;68.78;96473.02;1817461;77;25752;-85
2021/03/13 04:03:24;;;;;;;44.38;15.72;;;;;;;-1.09;68.88;96465.87;1822775;77;25917;-89
2021/03/13 04:05:52;;;;;;;44.65;15.50;;;;;;;-1.06;68.97;96462.56;1842612;77;25693;-85
2021/03/13 04:08:20;;;;;;;42.55;14.70;;;;;;;-1.04;68.92;96466.72;1819110;77;27609;-85
2021/03/13 04:10:51;;;;;;;36.75;14.30;;;;;;;-1.07;68.89;96461.73;1842429;77;26185;-85
2021/03/13 04:13:22;;;;;;;39.58;13.83;;;;;;;-1.07;68.89;96462.23;1833889;77;25781;-85
2021/03/13 04:15:50;;;;;;;33.05;12.53;;;;;;;-1.03;69.08;96460.92;1787196;77;25830;-88
2021/03/13 04:18:19;;;;;;;28.92;12.50;;;;;;;-1.02;69.00;96455.97;1831903;77;25743;-86
2021/03/13 04:20:49;;;;;;;27.10;10.53;;;;;;;-1.02;69.04;96453.31;1842490;77;27493;-87
2021/03/13 04:23:21;;;;;;;32.17;11.25;;;;;;;-0.97;69.04;96450.53;1819268;77;25874;-85
2021/03/13 04:25:52;;;;;;;42.60;13.22;;;;;;;-0.94;69.12;96442.72;1846522;77;32950;-84
2021/03/13 04:28:21;;;;;;;34.67;11.28;;;;;;;-0.88;69.11;96442.08;1841822;77;26806;-85
2021/03/13 04:30:52;;;;;;;20.48;8.38;;;;;;;-0.84;69.05;96431.47;1807792;77;25765;-85
2021/03/13 04:33:21;;;;;;;18.73;6.97;;;;;;;-0.83;69.08;96431.80;1825620;77;27447;-85
2021/03/13 04:35:52;;;;;;;17.82;7.80;;;;;;;-0.78;69.14;96430.33;1842541;77;25646;-85
2021/03/13 04:38:21;;;;;;;17.42;8.23;;;;;;;-0.77;69.11;96435.97;1821135;77;25765;-85
2021/03/13 04:40:53;;;;;;;16.95;7.33;;;;;;;-0.85;68.90;96431.16;1838762;77;25797;-84
2021/03/13 04:43:24;;;;;;;19.15;7.90;;;;;;;-0.84;68.98;96432.80;1804328;77;25707;-85
2021/03/13 04:45:58;;;;;;;17.35;7.30;;;;;;;-0.88;68.93;96430.99;1831770;77;28360;-84
2021/03/13 04:48:29;;;;;;;15.00;6.83;;;;;;;-0.87;69.08;96430.50;1796059;77;25735;-85
2021/03/13 04:51:02;;;;;;;17.23;7.80;;;;;;;-0.86;68.97;96432.16;1816060;77;25723;-84
2021/03/13 04:53:30;;;;;;;14.98;6.65;;;;;;;-0.95;68.98;96433.12;1809597;77;25913;-84
2021/03/13 04:55:57;;;;;;;17.12;8.18;;;;;;;-0.99;69.03;96434.45;1837524;77;25276;-84
2021/03/13 04:58:25;;;;;;;25.48;7.80;;;;;;;-1.06;69.10;96436.08;1842454;77;27519;-84
2021/03/13 05:00:53;;;;;;;28.27;12.70;;;;;;;-1.00;69.32;96440.25;1835319;77;25890;-84
2021/03/13 05:03:20;;;;;;;34.80;15.63;;;;;;;-1.00;69.25;96430.98;1787171;77;25801;-83
2021/03/13 05:05:48;;;;;;;27.67;14.18;;;;;;;-0.96;69.39;96424.83;1810368;77;25751;-84
2021/03/13 05:08:15;;;;;;;34.78;15.60;;;;;;;-0.92;69.48;96424.35;1815059;77;25839;-83
2021/03/13 05:10:42;;;;;;;34.18;15.03;;;;;;;-0.88;69.45;96424.86;1815663;77;27348;-84
2021/03/13 05:13:10;;;;;;;37.53;15.65;;;;;;;-0.90;69.35;96420.22;1825964;77;25735;-83
2021/03/13 05:15:37;;;;;;;34.45;14.43;;;;;;;-0.98;69.36;96418.41;1809596;77;25735;-84
2021/03/13 05:18:05;;;;;;;31.95;15.78;;;;;;;-0.93;69.52;96409.94;1841764;77;25876;-84
2021/03/13 05:20:32;;;;;;;26.50;11.35;;;;;;;-0.85;69.55;96415.27;1805375;77;25285;-83
2021/03/13 05:22:59;;;;;;;24.15;10.85;;;;;;;-0.81;69.56;96417.91;1821332;77;27588;-85
2021/03/13 05:25:27;;;;;;;32.00;13.70;;;;;;;-0.82;69.54;96406.97;1840770;77;25798;-83
2021/03/13 05:27:54;;;;;;;31.50;12.98;;;;;;;-0.84;69.56;96406.30;1811484;77;25785;-83
2021/03/13 05:30:22;;;;;;;27.27;13.08;;;;;;;-0.83;69.54;96413.26;1835501;77;25943;-83
2021/03/13 05:32:50;;;;;;;26.42;10.93;;;;;;;-0.84;69.69;96407.62;1842606;77;25688;-83
2021/03/13 05:35:17;;;;;;;29.12;12.88;;;;;;;-0.82;69.91;96399.84;1837110;77;27481;-83
2021/03/13 05:37:44;;;;;;;33.63;14.18;;;;;;;-0.70;69.97;96395.54;1796306;77;25822;-83
2021/03/13 05:40:12;;;;;;;27.55;12.53;;;;;;;-0.66;70.00;96396.37;1832807;77;25684;-83
2021/03/13 05:42:40;;;;;;;14.95;7.92;;;;;;;-0.56;69.99;96395.70;1820464;77;26842;-82
2021/03/13 05:45:09;;;;;;;18.02;7.25;;;;;;;-0.37;70.02;96386.09;1820884;77;25722;-82
2021/03/13 05:47:38;;;;;;;11.63;4.53;;;;;;;-0.12;69.96;96382.06;1826676;77;28434;-82
2021/03/13 05:50:15;;;;;;;9.58;3.42;;;;;;;0.13;69.91;96387.59;1819924;77;25323;-81
2021/03/13 05:52:50;;;;;;;7.72;3.42;;;;;;;0.53;69.84;96381.28;1803497;77;25731;-81
2021/03/13 05:55:18;;;;;;;7.58;3.10;;;;;;;1.02;69.64;96387.13;1821689;77;26800;-80
2021/03/13 05:57:45;;;;;;;9.15;4.10;;;;;;;1.43;69.28;96388.16;1841142;77;25834;-81
2021/03/13 06:00:14;;;;;;;9.30;4.03;;;;;;;1.75;68.90;96381.70;1842702;77;27494;-83
2021/03/13 06:02:41;;;;;;;18.52;7.45;;;;;;;2.02;68.51;96381.60;1836832;77;25774;-83
2021/03/13 06:05:10;;;;;;;15.13;5.78;;;;;;;2.23;68.13;96367.05;1816041;77;25722;-82
2021/03/13 06:07:38;;;;;;;18.90;7.65;;;;;;;2.40;67.75;96378.34;1829986;77;26354;-83
2021/03/13 06:10:07;;;;;;;12.68;5.22;;;;;;;2.61;67.46;96368.23;1829966;77;25618;-84
2021/03/13 06:12:35;;;;;;;8.33;4.05;;;;;;;2.78;67.19;96367.81;1818128;77;27536;-82
2021/03/13 06:15:03;;;;;;;11.35;4.97;;;;;;;2.91;66.91;96372.46;1837125;77;25321;-83
2021/03/13 06:17:52;;;;;;;20.48;6.22;;;;;;;3.04;66.48;96375.27;1825492;77;25885;-81
2021/03/13 06:20:38;;;;;;;22.58;7.35;;;;;;;3.10;66.17;96371.86;1819242;77;25795;-84
2021/03/13 06:23:14;;;;;;;29.95;9.68;;;;;;;3.20;66.06;96375.54;1842789;77;25889;-83
2021/03/13 06:25:43;;;;;;;25.40;9.60;;;;;;;3.30;65.81;96379.22;1830630;77;28463;-83
2021/03/13 06:28:15;;;;;;;14.80;5.78;;;;;;;3.40;65.52;96381.05;1809612;77;25853;-81
2021/03/13 06:30:52;;;;;;;11.60;5.30;;;;;;;3.47;65.44;96383.28;1811669;77;26187;-84
2021/03/13 06:33:25;;;;;;;10.23;4.03;;;;;;;3.58;65.21;96377.42;1832520;77;25769;-81
2021/03/13 06:36:00;;;;;;;11.20;4.70;;;;;;;3.67;65.05;96386.94;1823747;77;25342;-83
2021/03/13 06:38:31;;;;;;;8.55;4.65;;;;;;;3.78;64.71;96384.25;1802873;77;27482;-83
2021/03/13 06:41:16;;;;;;;10.08;6.08;;;;;;;3.88;64.39;96392.23;1820734;77;26159;-82
2021/03/13 06:43:46;;;;;;;9.95;5.50;;;;;;;3.99;64.19;96393.03;1757420;80;25817;-83
2021/03/13 06:46:30;;;;;;;13.95;5.92;;;;;;;4.12;63.87;96396.30;1757646;80;25893;-81
2021/03/13 06:48:59;;;;;;;14.68;5.70;;;;;;;4.35;63.92;96395.52;1757601;80;25816;-81
2021/03/13 06:54:16;;;;;;;13.37;6.90;;;;;;;4.88;63.33;96394.95;1826649;76;32965;-81
2021/03/13 06:56:50;;;;;;;16.32;5.97;;;;;;;5.06;63.07;96401.91;1834882;77;26264;-83
2021/03/13 06:59:29;;;;;;;12.18;4.95;;;;;;;5.20;62.63;96399.56;1808687;77;27422;-79
2021/03/13 07:02:03;;;;;;;9.35;4.17;;;;;;;5.36;62.42;96393.84;1852182;77;25759;-82
2021/03/13 07:04:44;;;;;;;8.35;4.55;;;;;;;5.50;61.93;96403.23;1851155;77;25827;-80
2021/03/13 07:07:14;;;;;;;9.05;4.10;;;;;;;5.55;61.44;96403.46;1808950;77;25814;-80
2021/03/13 07:09:51;;;;;;;8.30;4.75;;;;;;;5.61;61.33;96390.06;1839167;77;25713;-80
2021/03/13 07:12:39;;;;;;;7.08;3.45;;;;;;;5.72;60.88;96393.98;1852369;77;28866;-80
2021/03/13 07:15:22;;;;;;;7.62;3.90;;;;;;;5.84;60.79;96385.64;1851864;77;26212;-79
2021/03/13 07:17:58;;;;;;;6.37;3.17;;;;;;;5.96;60.54;96386.70;1833056;77;25792;-82
2021/03/13 07:20:32;;;;;;;7.15;3.10;;;;;;;6.10;60.03;96391.02;1852254;77;25779;-81
2021/03/13 07:23:05;;;;;;;9.10;3.00;;;;;;;6.24;59.65;96397.70;1852246;77;25719;-81
2021/03/13 07:25:33;;;;;;;6.55;2.87;;;;;;;6.32;58.81;96390.26;1848188;77;27470;-82
2021/03/13 07:28:04;;;;;;;5.83;3.00;;;;;;;6.41;58.62;96384.15;1850236;77;25769;-80
2021/03/13 07:30:33;;;;;;;6.90;2.80;;;;;;;6.49;58.48;96391.47;1816635;77;25841;-83
2021/03/13 07:33:07;;;;;;;6.95;3.25;;;;;;;6.59;57.97;96400.41;1842447;76;25701;-82
2021/03/13 07:35:38;;;;;;;3.85;2.45;;;;;;;6.68;57.84;96396.45;1808099;78;25651;-81
2021/03/13 07:38:09;;;;;;;4.47;2.50;;;;;;;6.75;57.61;96399.95;1807957;77;27482;-81
2021/03/13 07:40:42;;;;;;;6.92;3.25;;;;;;;6.80;57.56;96397.44;1818911;77;34910;-84
2021/03/13 07:43:13;;;;;;;7.08;3.12;;;;;;;6.88;57.43;96395.85;1818783;77;25347;-81
2021/03/13 07:45:42;;;;;;;10.43;4.80;;;;;;;6.92;57.13;96408.85;1841886;77;26182;-85
2021/03/13 07:48:11;;;;;;;7.08;3.95;;;;;;;6.95;56.70;96393.16;1818899;77;25694;-82
2021/03/13 07:50:41;;;;;;;6.33;3.17;;;;;;;7.00;56.74;96415.34;1820351;77;27528;-82
2021/03/13 07:53:10;;;;;;;5.33;3.42;;;;;;;7.05;56.03;96400.75;1831678;77;25699;-83
2021/03/13 07:55:38;;;;;;;6.08;3.52;;;;;;;7.09;56.04;96397.44;1818624;77;25339;-85
2021/03/13 07:58:09;;;;;;;4.58;2.52;;;;;;;7.22;56.09;96409.45;1818740;77;25939;-85
2021/03/13 08:00:48;;;;;;;6.33;3.08;;;;;;;7.25;55.51;96409.52;1818680;77;25734;-81
2021/03/13 08:03:38;;;;;;;20.23;9.58;;;;;;;7.29;55.20;96405.38;1818879;77;28443;-80
2021/03/13 08:06:13;;;;;;;14.83;7.22;;;;;;;7.34;55.39;96413.62;1818110;77;25779;-81
2021/03/13 08:08:46;;;;;;;34.53;13.55;;;;;;;7.38;55.52;96423.38;1836739;77;26353;-81
2021/03/13 08:11:18;;;;;;;38.92;18.27;;;;;;;7.39;55.22;96408.41;1837585;77;25649;-84
2021/03/13 08:13:53;;;;;;;20.37;11.38;;;;;;;7.41;55.63;96400.97;1816428;77;25746;-82
2021/03/13 08:16:41;;;;;;;7.35;3.10;;;;;;;7.41;55.63;96400.97;1837258;77;27487;-83
2021/03/13 08:19:31;;;;;;;5.28;2.98;;;;;;;7.65;55.11;96430.25;1830020;77;25772;-82
2021/03/13 08:22:18;;;;;;;6.53;3.77;;;;;;;7.59;55.04;96437.84;1818986;77;26067;-82
2021/03/13 08:24:54;;;;;;;7.53;3.87;;;;;;;7.52;55.21;96424.44;1825997;77;25645;-81
2021/03/13 08:27:43;;;;;;;8.28;4.03;;;;;;;7.49;55.20;96428.07;1837239;77;25788;-81
2021/03/13 08:30:21;;;;;;;10.88;5.33;;;;;;;7.49;55.35;96435.61;1842393;77;27491;-83
2021/03/13 08:33:07;;;;;;;21.60;7.62;;;;;;;7.51;55.58;96438.91;1824366;77;25409;-83
2021/03/13 08:35:47;;;;;;;12.58;5.05;;;;;;;7.65;55.83;96428.09;1836547;77;25626;-82
2021/03/13 08:38:18;;;;;;;15.45;7.78;;;;;;;7.85;55.89;96425.55;1825935;77;25772;-83
2021/03/13 08:40:52;;;;;;;19.77;9.00;;;;;;;8.12;55.69;96435.59;1828366;77;25827;-82
2021/03/13 08:43:41;;;;;;;10.50;5.35;;;;;;;8.31;55.53;96429.75;1832553;77;27522;-81
2021/03/13 08:46:48;;;;;;;17.82;7.83;;;;;;;8.51;55.49;96440.34;1826796;77;25668;-81
2021/03/13 08:49:30;;;;;;;11.45;5.47;;;;;;;8.60;54.80;96431.77;1824374;77;25688;-82
2021/03/13 08:52:09;;;;;;;9.35;4.62;;;;;;;8.72;54.90;96431.02;1846561;77;26348;-82
2021/03/13 08:54:49;;;;;;;9.15;4.78;;;;;;;8.95;54.98;96427.97;1833392;77;25748;-82
2021/03/13 08:57:31;;;;;;;6.85;3.77;;;;;;;9.16;54.56;96428.57;1852653;77;27462;-83
2021/03/13 09:00:01;;;;;;;12.13;5.95;;;;;;;9.20;53.53;96433.78;1852772;77;25757;-81
2021/03/13 09:02:38;;;;;;;7.53;4.28;;;;;;;9.10;53.78;96425.42;1836563;77;26074;-82
2021/03/13 09:05:11;;;;;;;9.35;4.42;;;;;;;9.09;53.42;96425.12;1825534;77;25827;-83
2021/03/13 09:07:41;;;;;;;5.28;2.87;;;;;;;9.15;53.74;96420.19;1823102;77;26310;-83
2021/03/13 09:10:10;;;;;;;6.72;3.45;;;;;;;9.28;53.56;96424.06;1831265;77;28409;-82
2021/03/13 09:12:39;;;;;;;6.30;3.27;;;;;;;9.15;52.57;96443.08;1838451;77;26201;-82
2021/03/13 09:15:09;;;;;;;6.37;3.00;;;;;;;8.91;52.35;96432.17;1829471;77;26245;-81
2021/03/13 09:17:37;;;;;;;6.30;3.70;;;;;;;8.76;52.72;96427.67;1840331;77;26635;-82
2021/03/13 09:20:15;;;;;;;5.53;2.65;;;;;;;8.78;53.04;96424.24;1847810;77;25674;-82
2021/03/13 09:22:47;;;;;;;6.10;3.12;;;;;;;8.85;52.63;96419.59;1822564;77;27549;-81
2021/03/13 09:25:20;;;;;;;7.62;3.87;;;;;;;8.92;53.11;96417.67;1846764;77;25357;-81
2021/03/13 09:27:52;;;;;;;4.05;2.50;;;;;;;9.01;52.60;96420.35;1840696;77;25753;-84
2021/03/13 09:30:27;;;;;;;5.70;2.98;;;;;;;9.02;52.53;96422.00;1857946;77;25652;-82
2021/03/13 09:32:54;;;;;;;5.15;2.87;;;;;;;9.09;52.55;96425.94;1840476;77;25713;-80
2021/03/13 09:35:28;;;;;;;4.03;2.58;;;;;;;9.21;52.39;96416.05;1828652;77;27491;-81
2021/03/13 09:37:56;;;;;;;4.80;2.50;;;;;;;9.49;52.71;96409.28;1847653;77;26182;-80
2021/03/13 09:40:26;;;;;;;4.33;2.70;;;;;;;9.81;52.58;96416.58;1824110;77;25824;-80
2021/03/13 09:42:55;;;;;;;7.47;3.98;;;;;;;10.06;52.38;96402.39;1832576;77;26090;-81
2021/03/13 09:45:25;;;;;;;8.40;4.28;;;;;;;10.17;50.99;96419.11;1838526;77;25790;-85
2021/03/13 09:48:02;;;;;;;8.55;4.72;;;;;;;10.20;50.55;96420.03;1824164;77;28460;-82
2021/03/13 09:50:38;;;;;;;5.58;3.12;;;;;;;10.31;51.09;96417.05;1824203;77;26082;-82
2021/03/13 09:53:08;;;;;;;3.58;2.45;;;;;;;10.40;50.54;96405.67;1821423;77;25791;-84
2021/03/13 09:55:37;;;;;;;7.17;3.35;;;;;;;10.35;50.26;96410.14;1786427;79;26196;-82
2021/03/13 09:58:06;;;;;;;5.30;3.27;;;;;;;10.40;50.27;96425.91;1787541;79;25771;-83
2021/03/13 10:00:38;;;;;;;7.65;3.33;;;;;;;10.48;50.40;96425.28;1791164;78;28441;-84
2021/03/13 10:03:11;;;;;;;5.28;2.65;;;;;;;10.64;50.01;96423.20;1794800;79;26227;-81
2021/03/13 10:05:40;;;;;;;6.55;4.03;;;;;;;10.79;49.67;96401.44;1772564;79;26304;-81
2021/03/13 10:08:12;;;;;;;6.10;2.52;;;;;;;10.94;49.14;96405.52;1765433;79;25710;-82
2021/03/13 10:10:44;;;;;;;4.15;2.35;;;;;;;11.04;48.77;96408.44;1771315;79;25829;-81
2021/03/13 10:13:14;;;;;;;;;;;;;;;11.16;47.76;96418.68;1788280;78;28596;-82
2021/03/13 10:15:42;;;;;;;4.95;2.80;;;;;;;11.15;47.97;96413.80;1785655;79;25706;-83
2021/03/13 10:18:19;;;;;;;4.60;2.33;;;;;;;11.24;47.41;96403.97;1786620;79;25776;-83
2021/03/13 10:20:53;;;;;;;6.15;3.42;;;;;;;11.34;47.71;96409.06;1776542;79;25742;-82
2021/03/13 10:23:35;;;;;;;6.25;2.77;;;;;;;11.55;47.10;96388.66;1795628;79;25721;-81
2021/03/13 10:26:09;;;;;;;5.40;3.17;;;;;;;11.51;46.31;96397.77;1783828;79;28534;-83
2021/03/13 10:28:39;;;;;;;5.47;3.20;;;;;;;11.48;46.30;96393.36;1769465;79;26378;-84
2021/03/13 10:31:13;;;;;;;5.30;2.92;;;;;;;11.72;47.47;96377.86;1795601;79;25709;-84
2021/03/13 10:33:44;;;;;;;7.47;3.55;;;;;;;11.93;45.11;96398.02;1794417;79;26575;-83
2021/03/13 10:36:14;;;;;;;4.87;2.55;;;;;;;11.41;45.34;96391.34;1796277;78;25674;-82
2021/03/13 10:38:50;;;;;;;7.65;4.10;;;;;;;11.10;46.53;96388.06;1796466;78;27526;-82
2021/03/13 10:41:23;;;;;;;7.47;4.50;;;;;;;11.29;46.92;96391.92;1775300;78;26300;-82
2021/03/13 10:43:52;;;;;;;9.18;4.53;;;;;;;11.50;46.63;96379.09;1789766;78;25671;-84
2021/03/13 10:46:21;;;;;;;8.78;4.22;;;;;;;11.56;46.22;96388.95;1769111;79;26113;-84
2021/03/13 10:48:56;;;;;;;5.80;3.58;;;;;;;11.63;46.23;96374.73;1763883;79;25731;-84
2021/03/13 10:51:35;;;;;;;5.30;2.85;;;;;;;11.75;45.89;96359.80;1767539;79;28526;-84
2021/03/13 10:54:05;;;;;;;7.83;4.40;;;;;;;11.84;46.17;96365.13;1814535;77;25755;-84
2021/03/13 10:56:41;;;;;;;5.40;3.37;;;;;;;12.04;45.43;96372.78;1847137;77;25634;-83
2021/03/13 10:59:09;;;;;;;6.85;3.70;;;;;;;12.20;45.47;96370.59;1818175;77;25787;-83
2021/03/13 11:01:38;;;;;;;5.55;3.60;;;;;;;11.98;45.51;96375.09;1822037;77;25679;-83
2021/03/13 11:04:05;;;;;;;4.67;3.60;;;;;;;11.94;45.10;96373.44;1801236;78;27488;-82
2021/03/13 11:06:35;;;;;;;5.25;3.50;;;;;;;11.77;45.46;96379.34;1816818;77;25704;-83
2021/03/13 11:09:09;;;;;;;10.13;5.40;;;;;;;11.84;45.78;96359.19;1834682;77;25723;-83
2021/03/13 11:11:39;;;;;;;7.55;4.65;;;;;;;12.19;46.46;96352.74;1823277;77;26515;-83
2021/03/13 11:14:08;;;;;;;10.58;5.17;;;;;;;12.37;45.58;96359.77;1840082;77;25769;-84
2021/03/13 11:16:38;;;;;;;7.70;3.87;;;;;;;12.42;45.60;96359.85;1835035;77;27655;-83
2021/03/13 11:19:06;;;;;;;6.10;2.10;;;;;;;12.50;44.75;96354.83;1847679;77;25792;-82
2021/03/13 11:21:35;;;;;;;5.75;3.50;;;;;;;12.78;44.57;96345.75;1839841;77;25731;-83
2021/03/13 11:24:02;;;;;;;6.10;2.87;;;;;;;12.85;42.41;96356.38;1819796;77;25819;-84
2021/03/13 11:26:29;;;;;;;2.85;2.10;;;;;;;12.63;42.54;96350.95;1818013;77;25795;-80
2021/03/13 11:28:57;;;;;;;5.97;2.67;;;;;;;12.54;42.88;96339.73;1841387;77;27694;-81
2021/03/13 11:31:25;;;;;;;5.72;3.47;;;;;;;12.34;42.24;96346.19;1815405;77;25789;-83
2021/03/13 11:33:52;;;;;;;5.53;2.60;;;;;;;12.38;42.77;96344.63;1819821;77;26307;-81
2021/03/13 11:36:20;;;;;;;4.05;2.27;;;;;;;12.41;42.05;96337.38;1827094;77;26477;-82
2021/03/13 11:38:48;;;;;;;6.47;4.20;;;;;;;12.23;42.53;96339.81;1851602;77;25887;-83
2021/03/13 11:41:16;;;;;;;4.80;2.80;;;;;;;12.26;42.99;96327.67;1845829;77;27472;-83
2021/03/13 11:43:44;;;;;;;4.90;3.40;;;;;;;12.47;43.12;96312.55;1829726;77;25771;-82
2021/03/13 11:46:14;;;;;;;3.37;2.00;;;;;;;12.85;43.29;96324.70;1845413;77;25728;-81
2021/03/13 11:48:42;;;;;;;7.50;4.00;;;;;;;12.91;40.92;96335.08;1828796;77;25817;-81
2021/03/13 11:51:10;;;;;;;3.80;2.85;;;;;;;12.83;41.43;96321.95;1847419;77;25858;-82